Terminal Aerodrome Forecast
Issued by NWS Huntsville, AL

Home | Current Version | Previous Version | Text Only | Print | Product List | Glossary On
Versions: 1 2 3 4 5 6 7 8 9 10 11 12 13 14 15 16 17 18 19 20 21 22 23 24 25 26 27 28
000
FTUS44 KHUN 281132
TAFMSL
TAF
KMSL 281132Z 2812/2912 23008KT P6SM -SHRA SCT025 BKN040
      TEMPO 2812/2814 4SM TSRA BR BKN025CB
     FM281400 27010KT P6SM VCTS SCT012 BKN020CB
     FM290000 33004KT P6SM SCT009 BKN025
     FM290800 36005KT P6SM SCT025=

USA.gov is the U.S. government's official web portal to all federal, state and local government web resources and services.